Time;durP1;ratioP1;P1;durP2;ratioP2;P2;SDS_P1;SDS_P2;PMS_P1;PMS_P2;Temp;Humidity;BMP_temperature;BMP_pressure;BME280_temperature;BME280_humidity;BME280_pressure;Samples;Min_cycle;Max_cycle;Signal;HPM_P1;HPM_P2
2024/01/20 00:00:29;;;;;;;0.00;0.00;;;-1.40;99.90;;;;;;5007307;28;20528;-65
2024/01/20 00:02:55;;;;;;;0.00;0.00;;;-1.30;99.90;;;;;;5005607;28;20108;-65
2024/01/20 00:05:21;;;;;;;0.00;0.00;;;-1.40;99.90;;;;;;5007282;28;20026;-65
2024/01/20 00:07:46;;;;;;;0.00;0.00;;;-1.40;99.90;;;;;;5002155;28;20029;-65
2024/01/20 00:10:12;;;;;;;0.00;0.00;;;-1.40;99.90;;;;;;5008434;28;20018;-65
2024/01/20 00:12:39;;;;;;;0.00;0.00;;;-1.40;99.90;;;;;;5011508;28;20612;-65
2024/01/20 00:15:05;;;;;;;;;;;-1.40;99.90;;;;;;5006901;28;20121;-65
2024/01/20 00:17:31;;;;;;;0.03;0.03;;;-1.50;99.90;;;;;;5038199;28;19913;-65
2024/01/20 00:19:57;;;;;;;0.00;0.00;;;-1.40;99.90;;;;;;5014422;28;20042;-64
2024/01/20 00:22:23;;;;;;;0.00;0.00;;;-1.40;99.90;;;;;;5007103;28;20778;-64
2024/01/20 00:24:48;;;;;;;0.00;0.00;;;-1.30;99.90;;;;;;5008847;28;20034;-65
2024/01/20 00:27:14;;;;;;;0.13;0.13;;;-1.30;99.90;;;;;;5007976;28;20133;-65
2024/01/20 00:29:40;;;;;;;0.00;0.00;;;-1.40;99.90;;;;;;5007783;28;20028;-65
2024/01/20 00:32:05;;;;;;;0.33;0.33;;;-1.40;99.90;;;;;;5039066;28;20061;-65
2024/01/20 00:34:31;;;;;;;0.00;0.00;;;-1.30;99.90;;;;;;5005256;28;20393;-65
2024/01/20 00:36:58;;;;;;;0.00;0.00;;;-1.40;99.90;;;;;;5007836;28;20042;-64
2024/01/20 00:39:23;;;;;;;0.10;0.10;;;-1.40;99.90;;;;;;5004982;28;20021;-65
2024/01/20 00:41:49;;;;;;;0.00;0.00;;;-1.40;99.90;;;;;;5010674;28;20029;-64
2024/01/20 00:44:14;;;;;;;0.00;0.00;;;-1.40;99.90;;;;;;5022821;28;20084;-65
2024/01/20 00:46:40;;;;;;;0.00;0.00;;;-1.30;99.90;;;;;;5008514;28;20018;-65
2024/01/20 00:49:06;;;;;;;0.00;0.00;;;-1.30;99.90;;;;;;5007209;28;20014;-65
2024/01/20 00:51:31;;;;;;;0.00;0.00;;;-1.30;99.90;;;;;;5006449;28;20024;-65
2024/01/20 00:53:57;;;;;;;0.00;0.00;;;-1.30;99.90;;;;;;5023643;28;20053;-65
2024/01/20 00:56:22;;;;;;;0.00;0.00;;;-1.30;99.90;;;;;;5007559;28;20026;-65
2024/01/20 00:58:48;;;;;;;0.00;0.00;;;-1.30;99.90;;;;;;5008596;28;20037;-64
2024/01/20 01:01:14;;;;;;;0.00;0.00;;;-1.30;99.90;;;;;;5007324;28;20026;-64
2024/01/20 01:03:41;;;;;;;0.00;0.00;;;-1.30;99.90;;;;;;5008225;28;20030;-65
2024/01/20 01:06:07;;;;;;;0.00;0.00;;;-1.30;99.90;;;;;;5007531;28;20018;-65
2024/01/20 01:08:33;;;;;;;0.00;0.00;;;-1.30;99.90;;;;;;5006730;28;20030;-65
2024/01/20 01:10:59;;;;;;;0.00;0.00;;;-1.30;99.90;;;;;;5007171;28;20034;-65
2024/01/20 01:13:24;;;;;;;0.00;0.00;;;-1.30;99.90;;;;;;5006004;28;20041;-65
2024/01/20 01:15:50;;;;;;;0.00;0.00;;;-1.30;99.90;;;;;;5003689;28;20026;-65
2024/01/20 01:18:16;;;;;;;0.00;0.00;;;-1.30;99.90;;;;;;5005162;28;20029;-64
2024/01/20 01:20:41;;;;;;;0.00;0.00;;;-1.30;99.90;;;;;;5003475;28;20107;-65
2024/01/20 01:23:07;;;;;;;0.00;0.00;;;-1.30;99.90;;;;;;5005962;28;20036;-64
2024/01/20 01:25:32;;;;;;;0.00;0.00;;;-1.30;99.90;;;;;;5006228;28;20111;-65
2024/01/20 01:27:58;;;;;;;0.00;0.00;;;-1.30;99.90;;;;;;5002905;28;20029;-65
2024/01/20 01:30:24;;;;;;;0.00;0.00;;;-1.30;99.90;;;;;;5004228;28;20022;-65
2024/01/20 01:32:50;;;;;;;0.00;0.00;;;-1.30;99.90;;;;;;5005726;28;20029;-64
2024/01/20 01:35:16;;;;;;;0.03;0.03;;;-1.40;99.90;;;;;;5006087;28;20057;-64
2024/01/20 01:37:42;;;;;;;;;;;-1.40;99.90;;;;;;5004220;28;20030;-65
2024/01/20 01:40:08;;;;;;;0.00;0.00;;;-1.40;99.90;;;;;;5004796;28;19906;-64
2024/01/20 01:42:34;;;;;;;0.00;0.00;;;-1.40;99.90;;;;;;5005666;28;20030;-65
2024/01/20 01:44:59;;;;;;;0.00;0.00;;;-1.40;99.90;;;;;;5004276;28;20493;-64
2024/01/20 01:47:25;;;;;;;0.00;0.00;;;-1.40;99.90;;;;;;5005549;28;20089;-65
2024/01/20 01:49:51;;;;;;;0.00;0.00;;;-1.40;99.90;;;;;;5006271;28;20018;-65
2024/01/20 01:52:18;;;;;;;0.33;0.33;;;-1.40;99.90;;;;;;5004015;28;20105;-65
2024/01/20 01:54:44;;;;;;;0.00;0.00;;;-1.40;99.90;;;;;;5003266;28;20025;-65
2024/01/20 01:57:10;;;;;;;0.03;0.03;;;-1.30;99.90;;;;;;5005904;28;20030;-65
2024/01/20 01:59:36;;;;;;;0.00;0.00;;;-1.30;99.90;;;;;;5002914;28;20026;-64
2024/01/20 02:02:02;;;;;;;0.00;0.00;;;-1.30;99.90;;;;;;5003986;28;20030;-65
2024/01/20 02:04:28;;;;;;;0.00;0.00;;;-1.30;99.90;;;;;;5005116;28;20516;-65
2024/01/20 02:06:54;;;;;;;0.00;0.00;;;-1.40;99.90;;;;;;5005076;28;20493;-65
2024/01/20 02:09:20;;;;;;;0.00;0.00;;;-1.40;99.90;;;;;;5004905;28;20458;-65
2024/01/20 02:11:46;;;;;;;0.00;0.00;;;-1.40;99.90;;;;;;5005002;28;20022;-65
2024/01/20 02:14:12;;;;;;;0.20;0.20;;;-1.40;99.90;;;;;;5004126;28;20545;-65
2024/01/20 02:16:38;;;;;;;0.00;0.00;;;-1.40;99.90;;;;;;5004439;28;20105;-65
2024/01/20 02:19:05;;;;;;;0.00;0.00;;;-1.40;99.90;;;;;;5004309;28;20268;-65
2024/01/20 02:21:32;;;;;;;0.13;0.13;;;-1.40;99.90;;;;;;5021410;28;20389;-65
2024/01/20 02:24:00;;;;;;;0.00;0.00;;;-1.40;99.90;;;;;;5004092;28;20037;-65
2024/01/20 02:26:28;;;;;;;0.00;0.00;;;-1.40;99.90;;;;;;5002383;28;20026;-65
2024/01/20 02:28:54;;;;;;;0.00;0.00;;;-1.40;99.90;;;;;;5002575;28;20330;-65
2024/01/20 02:31:19;;;;;;;0.00;0.00;;;-1.50;99.90;;;;;;5003928;28;20075;-65
2024/01/20 02:33:45;;;;;;;0.00;0.00;;;-1.40;99.90;;;;;;5005168;28;20105;-65
2024/01/20 02:36:10;;;;;;;0.00;0.00;;;-1.40;99.90;;;;;;5003401;28;20615;-65
2024/01/20 02:38:36;;;;;;;0.00;0.00;;;-1.40;99.90;;;;;;5004103;28;20129;-65
2024/01/20 02:41:02;;;;;;;0.00;0.00;;;-1.40;99.90;;;;;;5003866;28;20030;-65
2024/01/20 02:43:27;;;;;;;1.07;0.77;;;-1.50;99.90;;;;;;5002774;28;20026;-65
2024/01/20 02:45:53;;;;;;;0.00;0.00;;;-1.50;99.90;;;;;;5002422;28;20029;-65
2024/01/20 02:48:18;;;;;;;0.00;0.00;;;-1.50;99.90;;;;;;5001896;28;20057;-65
2024/01/20 02:50:44;;;;;;;0.00;0.00;;;-1.50;99.90;;;;;;5004244;28;20022;-65
2024/01/20 02:53:09;;;;;;;0.00;0.00;;;-1.40;99.90;;;;;;5002002;28;20033;-65
2024/01/20 02:55:35;;;;;;;0.00;0.00;;;-1.40;99.90;;;;;;5002431;28;20562;-65
2024/01/20 02:58:01;;;;;;;0.00;0.00;;;-1.40;99.90;;;;;;5020288;28;20030;-65
2024/01/20 03:00:28;;;;;;;0.00;0.00;;;-1.50;99.90;;;;;;5004461;28;20159;-65
2024/01/20 03:02:55;;;;;;;0.00;0.00;;;-1.50;99.90;;;;;;5001203;28;20054;-62
2024/01/20 03:05:20;;;;;;;;;;;-1.50;99.90;;;;;;5006301;28;20045;-61
2024/01/20 03:07:46;;;;;;;0.00;0.00;;;-1.50;99.90;;;;;;5004493;28;20233;-63
2024/01/20 03:10:11;;;;;;;0.00;0.00;;;-1.50;99.90;;;;;;5004344;28;20041;-62
2024/01/20 03:12:37;;;;;;;0.83;0.77;;;-1.50;99.90;;;;;;5004042;28;20025;-62
2024/01/20 03:15:03;;;;;;;0.00;0.00;;;-1.50;99.90;;;;;;5004370;28;20034;-62
2024/01/20 03:17:29;;;;;;;0.00;0.00;;;-1.50;99.90;;;;;;5005304;28;20540;-63
2024/01/20 03:19:55;;;;;;;0.00;0.00;;;-1.50;99.90;;;;;;5004750;28;20056;-63
2024/01/20 03:22:21;;;;;;;0.00;0.00;;;-1.50;99.90;;;;;;5003166;28;20460;-63
2024/01/20 03:24:47;;;;;;;0.00;0.00;;;-1.50;99.90;;;;;;5003725;28;20030;-64
2024/01/20 03:27:13;;;;;;;0.00;0.00;;;-1.50;99.90;;;;;;5003285;28;20500;-61
2024/01/20 03:29:39;;;;;;;0.00;0.00;;;-1.50;99.90;;;;;;5020700;28;20092;-62
2024/01/20 03:32:05;;;;;;;0.00;0.00;;;-1.50;99.90;;;;;;5004151;28;20030;-63
2024/01/20 03:34:31;;;;;;;0.00;0.00;;;-1.50;99.90;;;;;;5004038;28;20079;-62
2024/01/20 03:36:56;;;;;;;0.00;0.00;;;-1.50;99.90;;;;;;5002694;28;20018;-62
2024/01/20 03:39:22;;;;;;;0.00;0.00;;;-1.50;99.90;;;;;;5003616;28;20079;-62
2024/01/20 03:41:47;;;;;;;0.00;0.00;;;-1.50;99.90;;;;;;5003825;28;20072;-62
2024/01/20 03:44:13;;;;;;;0.00;0.00;;;-1.50;99.90;;;;;;5005634;28;20022;-62
2024/01/20 03:46:39;;;;;;;0.00;0.00;;;-1.50;99.90;;;;;;5007828;28;20026;-62
2024/01/20 03:49:05;;;;;;;0.00;0.00;;;-1.60;99.90;;;;;;5008713;28;20723;-62
2024/01/20 03:51:30;;;;;;;0.33;0.33;;;-1.50;99.90;;;;;;5007138;28;20022;-62
2024/01/20 03:53:56;;;;;;;0.00;0.00;;;-1.50;99.90;;;;;;5006027;28;20129;-62
2024/01/20 03:56:22;;;;;;;0.00;0.00;;;-1.50;99.90;;;;;;5006140;28;20033;-62
2024/01/20 03:58:48;;;;;;;0.00;0.00;;;-1.50;99.90;;;;;;5007411;28;20125;-63
2024/01/20 04:01:13;;;;;;;0.00;0.00;;;-1.50;99.90;;;;;;5006222;28;20030;-63
2024/01/20 04:03:39;;;;;;;0.00;0.00;;;-1.50;99.90;;;;;;5007315;28;20779;-63
2024/01/20 04:06:05;;;;;;;0.00;0.00;;;-1.60;99.90;;;;;;5007526;28;20018;-62
2024/01/20 04:08:30;;;;;;;0.00;0.00;;;-1.50;99.90;;;;;;5006679;28;20026;-62
2024/01/20 04:10:56;;;;;;;0.00;0.00;;;-1.50;99.90;;;;;;5006770;28;20054;-64
2024/01/20 04:13:22;;;;;;;0.03;0.03;;;-1.60;99.90;;;;;;5006939;28;20053;-65
2024/01/20 04:15:48;;;;;;;0.00;0.00;;;-1.50;99.90;;;;;;5007027;28;21517;-65
2024/01/20 04:18:13;;;;;;;0.00;0.00;;;-1.50;99.90;;;;;;5007692;28;20026;-65
2024/01/20 04:20:39;;;;;;;0.00;0.00;;;-1.50;99.90;;;;;;5006008;28;20033;-65
2024/01/20 04:23:05;;;;;;;0.00;0.00;;;-1.50;99.90;;;;;;5005098;28;20030;-65
2024/01/20 04:25:31;;;;;;;0.00;0.00;;;-1.60;99.90;;;;;;5006181;28;20036;-65
2024/01/20 04:27:56;;;;;;;0.00;0.00;;;-1.60;99.90;;;;;;5007875;28;20010;-65
2024/01/20 04:30:22;;;;;;;0.00;0.00;;;-1.60;99.90;;;;;;5006274;28;20030;-65
2024/01/20 04:32:47;;;;;;;0.00;0.00;;;-1.50;99.90;;;;;;5006416;28;20034;-65
2024/01/20 04:35:13;;;;;;;0.00;0.00;;;-1.50;99.90;;;;;;5006853;28;20141;-65
2024/01/20 04:37:39;;;;;;;0.00;0.00;;;-1.50;99.90;;;;;;5006748;28;20049;-65
2024/01/20 04:40:06;;;;;;;0.00;0.00;;;-1.50;99.90;;;;;;5006894;28;20030;-65
2024/01/20 04:42:31;;;;;;;0.10;0.10;;;-1.50;99.90;;;;;;5021398;28;20034;-65
2024/01/20 04:44:57;;;;;;;0.00;0.00;;;-1.50;99.90;;;;;;5007125;28;20080;-65
2024/01/20 04:47:23;;;;;;;0.00;0.00;;;-1.50;99.90;;;;;;5005074;28;20026;-65
2024/01/20 04:49:51;;;;;;;0.00;0.00;;;-1.50;99.90;;;;;;5006720;28;20113;-65
2024/01/20 04:52:18;;;;;;;0.10;0.10;;;-1.50;99.90;;;;;;5005138;28;20397;-65
2024/01/20 04:54:43;;;;;;;;;;;-1.50;99.90;;;;;;5008958;28;20188;-65
2024/01/20 04:57:09;;;;;;;0.00;0.00;;;-1.50;99.90;;;;;;5004557;28;19999;-65
2024/01/20 04:59:34;;;;;;;0.00;0.00;;;-1.40;99.90;;;;;;5005647;28;20129;-65
2024/01/20 05:02:01;;;;;;;0.00;0.00;;;-1.40;99.90;;;;;;5006547;28;20034;-65
2024/01/20 05:04:27;;;;;;;0.00;0.00;;;-1.40;99.90;;;;;;5007323;28;20026;-65
2024/01/20 05:06:52;;;;;;;0.00;0.00;;;-1.40;99.90;;;;;;5005451;28;20076;-65
2024/01/20 05:09:18;;;;;;;0.00;0.00;;;-1.40;99.90;;;;;;5006380;28;20034;-65
2024/01/20 05:11:43;;;;;;;0.10;0.10;;;-1.40;99.90;;;;;;5004400;28;20025;-65
2024/01/20 05:14:09;;;;;;;0.03;0.03;;;-1.40;99.90;;;;;;5004527;28;20053;-65
2024/01/20 05:16:34;;;;;;;0.00;0.00;;;-1.40;99.90;;;;;;5006484;28;20034;-65
2024/01/20 05:19:01;;;;;;;0.00;0.00;;;-1.40;99.90;;;;;;5005839;28;20034;-65
2024/01/20 05:21:27;;;;;;;0.00;0.00;;;-1.40;99.90;;;;;;5021876;28;20574;-65
2024/01/20 05:23:52;;;;;;;0.00;0.00;;;-1.40;99.90;;;;;;5006070;28;20065;-65
2024/01/20 05:26:18;;;;;;;0.00;0.00;;;-1.40;99.90;;;;;;5035506;28;20041;-65
2024/01/20 05:28:44;;;;;;;0.20;0.20;;;-1.30;99.90;;;;;;5005468;28;20377;-65
2024/01/20 05:31:10;;;;;;;0.00;0.00;;;-1.40;99.90;;;;;;5005607;28;20029;-65
2024/01/20 05:33:36;;;;;;;0.00;0.00;;;-1.30;99.90;;;;;;5035205;28;20038;-65
2024/01/20 05:36:01;;;;;;;0.00;0.00;;;-1.30;99.90;;;;;;5005981;28;20402;-65
2024/01/20 05:38:27;;;;;;;0.23;0.23;;;-1.30;99.90;;;;;;5006204;28;20146;-65
2024/01/20 05:40:53;;;;;;;0.00;0.00;;;-1.30;99.90;;;;;;5005293;28;20072;-64
2024/01/20 05:43:18;;;;;;;0.00;0.00;;;-1.30;99.90;;;;;;5003534;28;20168;-65
2024/01/20 05:45:44;;;;;;;0.00;0.00;;;-1.30;99.90;;;;;;5004150;28;20036;-65
2024/01/20 05:48:09;;;;;;;0.00;0.00;;;-1.30;99.90;;;;;;5003878;28;20524;-65
2024/01/20 05:50:35;;;;;;;0.00;0.00;;;-1.30;99.90;;;;;;5004794;28;20464;-65
2024/01/20 05:53:01;;;;;;;0.00;0.00;;;-1.30;99.90;;;;;;5005200;28;20030;-65
2024/01/20 05:55:27;;;;;;;0.00;0.00;;;-1.30;99.90;;;;;;5020594;28;20038;-65
2024/01/20 05:57:53;;;;;;;0.00;0.00;;;-1.30;99.90;;;;;;5005578;28;20505;-65
2024/01/20 06:00:21;;;;;;;0.03;0.03;;;-1.30;99.90;;;;;;5003833;28;20033;-65
2024/01/20 06:02:47;;;;;;;0.00;0.00;;;-1.30;99.90;;;;;;5005246;28;20024;-65
2024/01/20 06:05:12;;;;;;;0.27;0.27;;;-1.20;99.90;;;;;;5005715;28;20365;-65
2024/01/20 06:07:38;;;;;;;0.00;0.00;;;-1.20;99.90;;;;;;5004146;28;20030;-65
2024/01/20 06:10:05;;;;;;;0.00;0.00;;;-1.20;99.90;;;;;;5005133;28;20084;-65
2024/01/20 06:12:31;;;;;;;0.10;0.10;;;-1.20;99.90;;;;;;5003224;28;20060;-65
2024/01/20 06:14:56;;;;;;;0.00;0.00;;;-1.20;99.90;;;;;;5005359;28;20568;-65
2024/01/20 06:17:22;;;;;;;0.00;0.00;;;-1.30;99.90;;;;;;5005016;28;20028;-65
2024/01/20 06:19:48;;;;;;;0.00;0.00;;;-1.30;99.90;;;;;;5004723;28;20029;-65
2024/01/20 06:22:14;;;;;;;0.00;0.00;;;-1.30;99.90;;;;;;5004368;28;20506;-65
2024/01/20 06:24:39;;;;;;;0.00;0.00;;;-1.30;99.90;;;;;;5003932;28;20404;-66
2024/01/20 06:27:05;;;;;;;0.00;0.00;;;-1.30;99.90;;;;;;5004819;28;20545;-64
2024/01/20 06:29:30;;;;;;;0.00;0.00;;;-1.40;99.90;;;;;;5004927;28;20017;-64
2024/01/20 06:31:56;;;;;;;0.00;0.00;;;-1.40;99.90;;;;;;5005062;28;20033;-63
2024/01/20 06:34:22;;;;;;;0.00;0.00;;;-1.40;99.90;;;;;;5004638;28;20030;-61
2024/01/20 06:36:47;;;;;;;0.00;0.00;;;-1.40;99.90;;;;;;5004320;28;20081;-61
2024/01/20 06:39:13;;;;;;;0.00;0.00;;;-1.30;99.90;;;;;;5004661;28;20030;-62
2024/01/20 06:41:40;;;;;;;0.00;0.00;;;-1.40;99.90;;;;;;5004379;28;20022;-61
2024/01/20 06:44:06;;;;;;;0.00;0.00;;;-1.20;99.90;;;;;;5003432;28;20521;-62
2024/01/20 06:46:32;;;;;;;0.20;0.20;;;-1.00;99.90;;;;;;5005138;28;20026;-61
2024/01/20 06:48:58;;;;;;;0.00;0.00;;;-0.90;99.90;;;;;;5019750;28;20315;-63
2024/01/20 06:51:26;;;;;;;0.00;0.00;;;-0.50;99.90;;;;;;5002334;28;20025;-61
2024/01/20 06:53:57;;;;;;;0.00;0.00;;;-0.10;99.90;;;;;;5004639;28;20059;-61
2024/01/20 06:56:24;;;;;;;0.32;0.32;;;0.30;99.90;;;;;;5004652;28;20488;-62
2024/01/20 06:58:51;;;;;;;0.00;0.00;;;0.80;99.90;;;;;;5005171;28;20452;-61
2024/01/20 07:01:16;;;;;;;0.00;0.00;;;1.30;99.90;;;;;;5004103;28;20611;-61
2024/01/20 07:03:42;;;;;;;0.00;0.00;;;1.80;99.90;;;;;;5003509;28;20053;-61
2024/01/20 07:06:08;;;;;;;0.00;0.00;;;2.30;99.90;;;;;;5007002;28;20351;-61
2024/01/20 07:08:34;;;;;;;0.00;0.00;;;2.90;99.90;;;;;;5019400;28;21405;-62
2024/01/20 07:10:59;;;;;;;0.00;0.00;;;3.30;99.90;;;;;;5004219;28;20053;-61
2024/01/20 07:13:25;;;;;;;0.00;0.00;;;3.80;99.90;;;;;;5005444;28;20030;-62
2024/01/20 07:15:51;;;;;;;0.00;0.00;;;4.20;99.90;;;;;;5005347;28;20024;-64
2024/01/20 07:18:16;;;;;;;0.00;0.00;;;4.90;99.90;;;;;;5007100;28;20030;-61
2024/01/20 07:20:43;;;;;;;0.00;0.00;;;5.50;98.40;;;;;;5006669;28;20667;-62
2024/01/20 07:23:09;;;;;;;0.00;0.00;;;6.10;96.90;;;;;;5008340;28;20377;-63
2024/01/20 07:25:36;;;;;;;0.00;0.00;;;6.50;95.30;;;;;;5021730;28;20034;-62
2024/01/20 07:28:04;;;;;;;0.00;0.00;;;7.00;94.10;;;;;;5008989;28;20109;-63
2024/01/20 07:30:29;;;;;;;0.00;0.00;;;7.50;93.10;;;;;;5006595;28;20387;-62
2024/01/20 07:32:58;;;;;;;0.00;0.00;;;8.00;91.20;;;;;;5006230;28;20696;-62
2024/01/20 07:35:24;;;;;;;0.00;0.00;;;8.10;90.10;;;;;;5005205;28;20030;-61
2024/01/20 07:37:50;;;;;;;0.00;0.00;;;8.50;88.50;;;;;;5007988;28;20029;-62
2024/01/20 07:40:16;;;;;;;0.00;0.00;;;8.90;87.30;;;;;;5008435;28;20032;-62
2024/01/20 07:42:43;;;;;;;0.03;0.03;;;9.00;84.30;;;;;;5007711;28;20018;-66
2024/01/20 07:45:09;;;;;;;0.00;0.00;;;9.60;82.70;;;;;;5007475;28;20362;-66
2024/01/20 07:47:34;;;;;;;0.00;0.00;;;9.70;81.20;;;;;;5007609;28;21132;-65
2024/01/20 07:50:00;;;;;;;0.00;0.00;;;9.90;80.20;;;;;;5007852;28;20026;-66
2024/01/20 07:52:26;;;;;;;0.10;0.10;;;9.90;78.80;;;;;;5024220;28;20025;-65
2024/01/20 07:54:51;;;;;;;0.00;0.00;;;9.90;77.80;;;;;;5040086;28;20660;-67
2024/01/20 07:57:17;;;;;;;0.00;0.00;;;9.30;78.70;;;;;;5008064;28;20032;-67
2024/01/20 07:59:43;;;;;;;0.00;0.00;;;8.70;79.20;;;;;;5006216;28;20021;-66
2024/01/20 08:02:08;;;;;;;0.00;0.00;;;8.10;80.80;;;;;;5004661;28;20500;-66
2024/01/20 08:04:34;;;;;;;0.00;0.00;;;7.40;82.60;;;;;;5008010;28;20112;-65
2024/01/20 08:07:00;;;;;;;0.00;0.00;;;7.10;83.80;;;;;;5009667;28;20037;-66
2024/01/20 08:09:25;;;;;;;0.00;0.00;;;6.80;84.50;;;;;;5004554;28;20022;-66
2024/01/20 08:11:51;;;;;;;0.00;0.00;;;6.50;84.70;;;;;;5009082;28;20075;-66
2024/01/20 08:14:17;;;;;;;0.00;0.00;;;5.90;86.60;;;;;;5006700;28;20101;-66
2024/01/20 08:16:42;;;;;;;0.00;0.00;;;5.60;89.10;;;;;;5010108;28;20033;-65
2024/01/20 08:19:08;;;;;;;0.40;0.40;;;5.30;89.40;;;;;;5007809;28;20037;-66
2024/01/20 08:21:34;;;;;;;0.00;0.00;;;4.90;90.50;;;;;;5006757;28;20045;-66
2024/01/20 08:24:00;;;;;;;0.00;0.00;;;4.70;90.80;;;;;;5006634;28;20034;-66
2024/01/20 08:26:26;;;;;;;0.00;0.00;;;4.70;91.00;;;;;;5006507;28;20065;-66
2024/01/20 08:28:51;;;;;;;0.00;0.00;;;5.20;90.90;;;;;;5007036;28;20389;-65
2024/01/20 08:31:17;;;;;;;0.00;0.00;;;6.40;90.00;;;;;;5007973;28;20101;-63
2024/01/20 08:33:43;;;;;;;0.00;0.00;;;7.80;88.70;;;;;;5007284;28;20033;-63
2024/01/20 08:36:08;;;;;;;0.00;0.00;;;8.90;85.40;;;;;;5022120;28;20037;-64
2024/01/20 08:38:34;;;;;;;0.00;0.00;;;10.20;82.20;;;;;;5008425;28;20021;-63
2024/01/20 08:40:59;;;;;;;0.00;0.00;;;11.40;78.90;;;;;;5007174;28;20029;-64
2024/01/20 08:43:25;;;;;;;0.00;0.00;;;12.10;74.40;;;;;;5004819;28;20095;-64
2024/01/20 08:45:51;;;;;;;0.00;0.00;;;12.50;73.70;;;;;;5038090;28;20026;-64
2024/01/20 08:48:17;;;;;;;0.00;0.00;;;13.30;70.90;;;;;;5002390;28;20033;-64
2024/01/20 08:50:42;;;;;;;0.00;0.00;;;14.30;69.10;;;;;;5007765;28;20076;-64
2024/01/20 08:53:08;;;;;;;0.00;0.00;;;14.80;66.10;;;;;;5006718;28;20026;-61
2024/01/20 08:55:34;;;;;;;0.00;0.00;;;15.30;62.90;;;;;;5005914;28;20292;-61
2024/01/20 08:58:01;;;;;;;0.00;0.00;;;15.80;63.70;;;;;;5006922;28;20041;-62
2024/01/20 09:00:28;;;;;;;0.00;0.00;;;16.20;60.50;;;;;;5007300;28;20017;-61
2024/01/20 09:02:53;;;;;;;0.10;0.10;;;16.70;59.60;;;;;;5006193;28;20351;-60
2024/01/20 09:05:19;;;;;;;0.00;0.00;;;17.50;59.40;;;;;;5009745;28;20014;-61
2024/01/20 09:07:45;;;;;;;0.00;0.00;;;17.90;56.90;;;;;;5021257;28;20088;-60
2024/01/20 09:10:12;;;;;;;0.00;0.00;;;18.20;55.50;;;;;;5006082;28;20497;-61
2024/01/20 09:12:37;;;;;;;0.00;0.00;;;18.50;54.50;;;;;;5005875;28;20022;-60
2024/01/20 09:15:03;;;;;;;0.10;0.10;;;18.70;53.90;;;;;;5006702;28;20038;-61
2024/01/20 09:17:29;;;;;;;0.75;0.28;;;19.10;53.00;;;;;;5006623;28;20335;-60
2024/01/20 09:19:55;;;;;;;0.00;0.00;;;19.20;52.90;;;;;;5005599;28;20409;-61
2024/01/20 09:22:20;;;;;;;0.00;0.00;;;19.40;51.70;;;;;;5005533;28;20033;-60
2024/01/20 09:24:46;;;;;;;0.00;0.00;;;19.50;51.60;;;;;;5006430;28;20034;-60
2024/01/20 09:27:11;;;;;;;0.00;0.00;;;19.50;51.40;;;;;;5006891;28;20265;-61
2024/01/20 09:29:37;;;;;;;0.30;0.30;;;20.40;50.90;;;;;;5006480;28;20097;-61
2024/01/20 09:32:03;;;;;;;0.00;0.00;;;20.30;49.90;;;;;;5005357;28;20033;-60
2024/01/20 09:34:29;;;;;;;0.00;0.00;;;20.30;49.80;;;;;;5005457;28;20296;-61
2024/01/20 09:36:54;;;;;;;0.05;0.05;;;20.10;49.60;;;;;;5006055;28;20343;-62
2024/01/20 09:39:20;;;;;;;0.00;0.00;;;20.30;49.50;;;;;;5032574;28;20482;-62
2024/01/20 09:41:46;;;;;;;0.00;0.00;;;20.40;48.70;;;;;;5004291;28;20037;-62
2024/01/20 09:44:14;;;;;;;0.00;0.00;;;20.40;48.90;;;;;;5006823;28;20026;-61
2024/01/20 09:46:40;;;;;;;0.00;0.00;;;20.60;48.40;;;;;;5006520;28;20444;-61
2024/01/20 09:49:06;;;;;;;0.00;0.00;;;21.00;48.30;;;;;;5005188;28;20030;-62
2024/01/20 09:51:31;;;;;;;0.00;0.00;;;21.10;47.60;;;;;;5005436;28;20295;-61
2024/01/20 09:54:00;;;;;;;0.00;0.00;;;21.40;47.70;;;;;;5006343;28;20037;-60
2024/01/20 09:56:27;;;;;;;0.25;0.25;;;21.50;47.20;;;;;;5004785;28;20276;-61
2024/01/20 09:58:55;;;;;;;;;;;21.00;47.20;;;;;;5005396;28;20034;-63
2024/01/20 10:01:22;;;;;;;0.00;0.00;;;21.00;46.60;;;;;;5005782;28;19914;-63
2024/01/20 10:03:48;;;;;;;0.00;0.00;;;20.40;46.70;;;;;;5004847;28;20059;-63
2024/01/20 10:06:13;;;;;;;0.00;0.00;;;20.80;46.50;;;;;;5008690;28;20109;-62
2024/01/20 10:08:39;;;;;;;0.00;0.00;;;21.20;45.90;;;;;;5005142;28;20157;-63
2024/01/20 10:11:06;;;;;;;0.00;0.00;;;21.50;45.90;;;;;;5003586;28;20026;-62
2024/01/20 10:13:31;;;;;;;0.00;0.00;;;21.70;45.60;;;;;;5004905;28;20030;-62
2024/01/20 10:15:57;;;;;;;0.00;0.00;;;21.50;45.00;;;;;;5022730;28;20076;-62
2024/01/20 10:18:23;;;;;;;0.15;0.15;;;22.10;44.90;;;;;;5006139;28;20049;-62
2024/01/20 10:20:48;;;;;;;0.00;0.00;;;21.60;44.80;;;;;;5020297;28;20029;-64
2024/01/20 10:23:14;;;;;;;0.20;0.20;;;22.20;44.50;;;;;;5006750;28;20661;-63
2024/01/20 10:25:39;;;;;;;0.10;0.10;;;22.50;44.20;;;;;;5006804;28;20038;-62
2024/01/20 10:28:07;;;;;;;0.00;0.00;;;22.00;43.90;;;;;;5004472;28;20781;-62
2024/01/20 10:30:33;;;;;;;0.00;0.00;;;22.20;43.60;;;;;;5004406;28;20041;-63
2024/01/20 10:32:59;;;;;;;0.00;0.00;;;22.10;43.70;;;;;;5021509;28;20057;-63
2024/01/20 10:35:24;;;;;;;0.00;0.00;;;22.20;44.30;;;;;;5004914;28;20026;-64
2024/01/20 10:37:51;;;;;;;0.00;0.00;;;23.10;43.40;;;;;;5005130;28;20030;-63
2024/01/20 10:40:17;;;;;;;0.00;0.00;;;23.40;43.10;;;;;;5005321;28;20022;-63
2024/01/20 10:42:45;;;;;;;0.00;0.00;;;23.90;42.40;;;;;;5004391;28;20034;-63
2024/01/20 10:45:17;;;;;;;0.00;0.00;;;24.10;41.90;;;;;;5001075;28;20076;-62
2024/01/20 10:47:57;;;;;;;0.20;0.10;;;24.10;41.60;;;;;;5001291;28;20026;-63
2024/01/20 10:50:25;;;;;;;0.00;0.00;;;24.10;41.30;;;;;;5003362;28;20385;-63
2024/01/20 10:52:51;;;;;;;0.00;0.00;;;24.50;41.30;;;;;;5006514;28;20400;-62
2024/01/20 10:55:18;;;;;;;0.00;0.00;;;23.60;41.10;;;;;;5009356;28;20028;-63
2024/01/20 10:57:46;;;;;;;0.00;0.00;;;23.50;41.10;;;;;;5009532;28;20038;-64
2024/01/20 11:00:13;;;;;;;0.00;0.00;;;23.50;41.60;;;;;;5006146;28;20033;-62
2024/01/20 11:02:40;;;;;;;0.00;0.00;;;23.30;41.00;;;;;;5008938;28;20026;-63
2024/01/20 11:05:26;;;;;;;0.00;0.00;;;22.80;41.10;;;;;;5012208;28;20030;-62
2024/01/20 11:08:08;;;;;;;0.00;0.00;;;22.40;41.30;;;;;;5023932;28;20334;-62
2024/01/20 11:10:41;;;;;;;0.03;0.03;;;22.00;41.50;;;;;;5007936;28;20693;-62
2024/01/20 11:13:08;;;;;;;0.00;0.00;;;21.50;41.80;;;;;;5010078;28;20092;-63
2024/01/20 11:15:34;;;;;;;0.00;0.00;;;18.90;42.60;;;;;;5022772;28;20517;-63
2024/01/20 11:18:00;;;;;;;0.00;0.00;;;15.20;45.90;;;;;;5007518;28;20040;-62
2024/01/20 11:20:27;;;;;;;0.00;0.00;;;12.70;49.20;;;;;;5009559;28;20042;-63
2024/01/20 11:22:55;;;;;;;0.00;0.00;;;10.80;51.90;;;;;;5022612;28;20022;-62
2024/01/20 11:25:22;;;;;;;0.00;0.00;;;9.70;53.80;;;;;;5007480;28;20044;-62
2024/01/20 11:27:51;;;;;;;0.00;0.00;;;9.00;55.50;;;;;;5007238;28;20029;-62
2024/01/20 11:30:27;;;;;;;0.05;0.05;;;8.80;56.40;;;;;;5008711;28;20022;-62
2024/01/20 11:32:53;;;;;;;0.00;0.00;;;8.50;56.80;;;;;;5008752;28;20565;-62
2024/01/20 11:35:19;;;;;;;0.00;0.00;;;8.40;57.70;;;;;;5007560;28;20358;-63
2024/01/20 11:37:45;;;;;;;0.00;0.00;;;8.30;58.00;;;;;;5007648;28;20026;-63
2024/01/20 11:40:11;;;;;;;0.00;0.00;;;8.00;58.30;;;;;;5006825;28;20026;-62
2024/01/20 11:42:38;;;;;;;0.00;0.00;;;7.90;58.30;;;;;;5008068;28;20523;-62
2024/01/20 11:45:05;;;;;;;0.00;0.00;;;7.80;58.60;;;;;;5009464;28;20025;-62
2024/01/20 11:47:31;;;;;;;0.00;0.00;;;7.60;58.70;;;;;;5008148;28;20699;-61
2024/01/20 11:49:58;;;;;;;0.55;0.32;;;7.50;59.30;;;;;;5007940;28;20014;-63
2024/01/20 11:52:25;;;;;;;0.00;0.00;;;7.40;59.00;;;;;;5006936;28;20061;-62
2024/01/20 11:54:51;;;;;;;;;;;7.30;59.40;;;;;;5008487;28;20036;-62
2024/01/20 11:57:24;;;;;;;0.00;0.00;;;7.30;59.70;;;;;;5006649;28;19910;-63
2024/01/20 11:59:50;;;;;;;0.00;0.00;;;7.20;60.60;;;;;;5007886;28;20105;-63
2024/01/20 12:02:16;;;;;;;0.00;0.00;;;7.20;59.70;;;;;;5022601;28;20040;-64
2024/01/20 12:04:42;;;;;;;0.00;0.00;;;7.10;59.60;;;;;;5009821;28;20037;-63
2024/01/20 12:07:08;;;;;;;0.00;0.00;;;7.10;59.60;;;;;;5008362;28;20040;-62
2024/01/20 12:09:34;;;;;;;0.00;0.00;;;7.10;59.80;;;;;;5006779;28;20052;-62
2024/01/20 12:12:02;;;;;;;0.00;0.00;;;7.00;59.50;;;;;;5005759;28;20030;-62
2024/01/20 12:14:28;;;;;;;0.00;0.00;;;6.90;59.50;;;;;;5007756;28;20014;-62
2024/01/20 12:16:54;;;;;;;0.00;0.00;;;6.70;59.80;;;;;;5006536;28;20362;-63
2024/01/20 12:19:20;;;;;;;0.00;0.00;;;6.80;59.70;;;;;;5008989;28;20029;-63
2024/01/20 12:21:46;;;;;;;0.00;0.00;;;6.80;59.70;;;;;;5006377;28;20040;-66
2024/01/20 12:24:13;;;;;;;0.00;0.00;;;6.80;60.20;;;;;;5006595;28;20685;-66
2024/01/20 12:26:41;;;;;;;0.00;0.00;;;6.80;60.50;;;;;;5007401;28;20109;-64
2024/01/20 12:29:07;;;;;;;0.00;0.00;;;6.80;59.70;;;;;;5006413;28;20106;-65
2024/01/20 12:31:33;;;;;;;0.00;0.00;;;6.70;60.00;;;;;;5005058;28;20025;-65
2024/01/20 12:34:00;;;;;;;0.00;0.00;;;6.80;59.90;;;;;;5005138;28;20520;-65
2024/01/20 12:36:27;;;;;;;0.00;0.00;;;6.70;60.10;;;;;;5005778;28;20112;-65
2024/01/20 12:38:53;;;;;;;0.00;0.00;;;6.70;60.30;;;;;;5006674;28;20604;-66
2024/01/20 12:41:19;;;;;;;0.00;0.00;;;6.70;59.80;;;;;;5019633;28;20110;-64
2024/01/20 12:43:48;;;;;;;0.00;0.00;;;6.70;59.80;;;;;;5006105;28;20080;-65